Time;durP1;ratioP1;P1;durP2;ratioP2;P2;SDS_P1;SDS_P2;PMS_P1;PMS_P2;Temp;Humidity;BMP_temperature;BMP_pressure;BME280_temperature;BME280_humidity;BME280_pressure;Samples;Min_cycle;Max_cycle;Signal;HPM_P1;HPM_P2
2022/01/20 00:01:08;;;;;;;30.13;7.25;;;3.70;99.90;;;4.33;100.00;101160.94;5047691;28;20013;-81
2022/01/20 00:03:41;;;;;;;33.45;5.78;;;3.60;99.90;;;4.27;100.00;101165.72;5042775;28;20028;-82
2022/01/20 00:09:13;;;;;;;29.45;6.63;;;3.50;99.90;;;4.36;100.00;101161.13;5059413;28;20082;-83
2022/01/20 00:28:47;;;;;;;26.92;5.40;;;3.10;99.90;;;3.76;100.00;101157.44;5035893;28;20040;-81
2022/01/20 00:33:51;;;;;;;29.42;5.30;;;3.10;99.90;;;3.70;100.00;101158.66;5035711;28;20065;-80
2022/01/20 00:39:04;;;;;;;33.70;6.82;;;3.10;99.90;;;3.79;100.00;101158.81;5035665;28;20036;-80
2022/01/20 00:41:31;;;;;;;30.90;6.75;;;3.10;99.90;;;3.80;100.00;101157.66;5034230;28;20033;-82
2022/01/20 00:43:57;;;;;;;27.67;5.03;;;3.10;99.90;;;3.82;100.00;101169.25;5060563;28;20097;-84
2022/01/20 00:46:23;;;;;;;35.63;5.72;;;3.10;99.90;;;3.78;100.00;101163.50;5039799;28;20395;-80
2022/01/20 00:48:54;;;;;;;39.33;6.28;;;3.10;99.90;;;3.73;100.00;101158.88;5037696;28;20027;-81
2022/01/20 00:51:23;;;;;;;35.47;5.82;;;3.00;99.90;;;3.71;100.00;101169.41;5055019;28;20037;-80
2022/01/20 00:53:51;;;;;;;51.13;7.68;;;3.00;99.90;;;3.77;100.00;101161.03;5055156;28;20025;-82
2022/01/20 00:56:17;;;;;;;35.22;6.63;;;3.00;99.90;;;3.94;100.00;101172.38;5055454;28;20075;-82
2022/01/20 00:58:43;;;;;;;31.27;5.78;;;3.10;99.90;;;3.96;100.00;101170.13;5053300;28;20120;-80
2022/01/20 01:01:09;;;;;;;41.35;6.97;;;3.20;99.90;;;4.02;100.00;101178.03;5037546;28;20460;-82
2022/01/20 01:03:37;;;;;;;34.60;6.90;;;3.30;99.90;;;4.11;100.00;101176.22;5036577;28;20119;-80
2022/01/20 01:08:50;;;;;;;41.17;6.63;;;3.40;99.90;;;4.31;100.00;101175.03;5054615;28;20036;-82
2022/01/20 01:11:17;;;;;;;38.35;7.03;;;3.50;99.90;;;4.41;100.00;101174.03;5052968;28;20020;-82
2022/01/20 01:13:43;;;;;;;35.40;5.97;;;3.60;99.90;;;4.44;100.00;101174.25;5036596;28;20052;-80
2022/01/20 01:16:11;;;;;;;37.10;6.80;;;3.60;99.90;;;4.44;100.00;101170.66;5036168;28;20068;-81
2022/01/20 01:21:30;;;;;;;24.10;5.50;;;3.70;99.90;;;4.47;100.00;101156.22;5050382;28;20259;-80
2022/01/20 01:23:56;;;;;;;39.60;6.68;;;3.70;99.90;;;4.35;100.00;101148.44;5036907;28;20108;-80
2022/01/20 01:26:26;;;;;;;29.98;6.28;;;3.70;99.90;;;4.36;100.00;101154.78;5050544;28;20396;-82
2022/01/20 01:28:52;;;;;;;34.05;6.47;;;3.60;99.90;;;4.34;100.00;101146.78;5052018;28;20408;-81
2022/01/20 01:33:54;;;;;;;39.10;6.78;;;3.60;99.90;;;4.22;100.00;101143.69;5054215;28;20064;-81
2022/01/20 01:36:22;;;;;;;36.35;6.10;;;3.50;99.90;;;4.20;100.00;101146.78;5054076;28;20025;-78
2022/01/20 01:38:49;;;;;;;38.75;6.43;;;3.50;99.90;;;4.20;100.00;101149.53;5054454;28;20025;-79
2022/01/20 01:41:40;;;;;;;30.88;6.43;;;3.50;99.90;;;4.28;100.00;101153.53;5055921;28;20036;-80
2022/01/20 01:44:09;;;;;;;31.17;5.68;;;3.50;99.90;;;4.32;100.00;101156.50;5035971;28;20476;-81
2022/01/20 01:46:38;;;;;;;39.60;8.32;;;3.60;99.90;;;4.47;100.00;101161.75;5055281;28;20033;-80
2022/01/20 01:49:06;;;;;;;35.72;6.57;;;3.70;99.90;;;4.42;100.00;101143.31;5049851;28;20484;-79
2022/01/20 01:51:32;;;;;;;37.30;6.22;;;3.70;99.90;;;4.46;100.00;101147.13;5036002;28;20025;-79
2022/01/20 01:54:04;;;;;;;44.25;6.40;;;3.70;99.90;;;4.58;100.00;101154.91;5035791;28;20061;-83
2022/01/20 01:56:35;;;;;;;37.08;6.68;;;3.80;99.90;;;4.53;100.00;101160.53;5051572;28;20025;-81
2022/01/20 01:59:01;;;;;;;33.83;6.00;;;3.80;99.90;;;4.61;100.00;101157.91;5035839;28;20029;-80
2022/01/20 02:01:31;;;;;;;35.90;6.38;;;3.80;99.90;;;4.66;100.00;101173.56;5035438;28;20472;-81
2022/01/20 02:04:00;;;;;;;30.77;5.57;;;3.90;99.90;;;4.62;100.00;101176.13;5035240;28;20049;-80
2022/01/20 02:06:52;;;;;;;39.63;6.25;;;3.90;99.90;;;4.77;100.00;101175.84;5049637;28;20078;-80
2022/01/20 02:17:58;;;;;;;33.00;5.93;;;3.90;99.90;;;4.58;100.00;101161.28;4952467;28;20035;-80
2022/01/20 02:20:27;;;;;;;34.97;7.15;;;3.80;99.90;;;4.59;100.00;101168.44;5049439;28;20095;-81
2022/01/20 02:22:56;;;;;;;35.42;5.65;;;3.80;99.90;;;4.54;100.00;101171.31;5035262;28;20025;-81
2022/01/20 02:25:33;;;;;;;26.25;5.40;;;3.80;99.90;;;4.49;100.00;101168.66;5048399;28;20026;-81
2022/01/20 02:28:10;;;;;;;36.00;7.60;;;3.70;99.90;;;4.35;100.00;101156.72;5033956;28;20030;-82
2022/01/20 02:30:43;;;;;;;34.95;5.45;;;3.60;99.90;;;4.33;100.00;101159.00;5032861;28;20029;-81
2022/01/20 02:33:18;;;;;;;25.58;5.80;;;3.60;99.90;;;4.47;100.00;101157.06;5032647;28;20032;-80
2022/01/20 02:36:05;;;;;;;30.80;5.78;;;3.60;99.90;;;4.40;100.00;101156.63;5034340;28;20021;-80
2022/01/20 02:39:10;;;;;;;30.73;4.50;;;3.70;99.90;;;4.68;100.00;101151.97;5033327;28;20068;-81
2022/01/20 02:46:55;;;;;;;26.75;4.25;;;3.90;99.90;;;4.73;100.00;101149.91;5033944;28;20032;-81
2022/01/20 02:49:22;;;;;;;21.73;4.13;;;4.00;99.90;;;4.82;100.00;101160.28;5034427;28;20030;-81
2022/01/20 02:51:55;;;;;;;27.60;4.55;;;4.00;99.90;;;4.78;100.00;101155.31;5035651;28;20052;-82
2022/01/20 02:54:24;;;;;;;17.17;4.13;;;4.00;99.90;;;4.73;100.00;101149.91;5036860;28;20029;-83
2022/01/20 02:56:53;;;;;;;25.85;5.30;;;4.00;99.90;;;4.77;100.00;101152.88;5054604;28;20033;-82
2022/01/20 02:59:25;;;;;;;19.92;4.40;;;4.00;99.90;;;4.79;100.00;101154.22;5040376;28;20044;-81
2022/01/20 03:01:51;;;;;;;29.95;5.40;;;4.10;99.90;;;4.88;100.00;101147.97;5037837;28;20031;-81
2022/01/20 03:04:17;;;;;;;33.38;6.00;;;4.10;99.90;;;4.87;100.00;101143.56;5057920;28;20107;-80
2022/01/20 03:06:43;;;;;;;30.50;5.40;;;4.10;99.90;;;4.90;100.00;101143.75;5039152;28;20068;-80
2022/01/20 03:09:13;;;;;;;22.85;4.30;;;4.10;99.90;;;4.82;100.00;101157.50;5057118;28;20029;-80
2022/01/20 03:11:39;;;;;;;19.75;4.45;;;4.10;99.90;;;4.80;100.00;101157.81;5038294;28;20587;-82
2022/01/20 03:14:08;;;;;;;28.13;4.13;;;4.10;99.90;;;4.87;100.00;101151.84;5055300;28;20064;-79
2022/01/20 03:16:33;;;;;;;25.50;4.28;;;4.10;99.90;;;4.94;100.00;101143.97;5054360;28;20060;-79
2022/01/20 03:18:59;;;;;;;35.85;6.53;;;4.20;99.90;;;4.90;100.00;101152.06;5039501;28;20025;-79
2022/01/20 03:21:25;;;;;;;32.28;5.55;;;4.20;99.90;;;4.88;100.00;101156.28;5041437;28;20025;-81
2022/01/20 03:23:51;;;;;;;30.65;5.05;;;4.20;99.90;;;4.79;100.00;101151.44;5050405;28;20025;-80
2022/01/20 03:26:17;;;;;;;35.30;5.10;;;4.20;99.90;;;4.87;100.00;101149.09;5037056;28;20041;-81
2022/01/20 03:28:43;;;;;;;27.88;5.22;;;4.20;99.90;;;4.81;100.00;101145.63;5036500;28;20044;-80
2022/01/20 03:31:14;;;;;;;25.70;5.25;;;4.10;99.90;;;4.67;100.00;101145.59;5036469;28;20108;-81
2022/01/20 03:33:40;;;;;;;28.88;4.90;;;4.00;99.90;;;4.61;100.00;101141.28;5046911;28;20205;-80
2022/01/20 03:36:06;;;;;;;24.27;4.15;;;3.90;99.90;;;4.60;100.00;101138.81;5055579;28;20040;-81
2022/01/20 03:38:35;;;;;;;33.05;4.30;;;3.90;99.90;;;4.68;100.00;101133.41;5038351;28;20037;-80
2022/01/20 03:41:04;;;;;;;24.63;4.05;;;4.00;99.90;;;4.61;100.00;101124.69;5037663;28;20101;-80
2022/01/20 03:43:30;;;;;;;24.58;4.50;;;3.90;99.90;;;4.65;100.00;101122.13;5054945;28;20036;-82
2022/01/20 03:46:06;;;;;;;38.50;5.75;;;3.90;99.90;;;4.69;100.00;101128.69;5051266;28;20057;-79
2022/01/20 03:48:38;;;;;;;33.20;4.13;;;3.90;99.90;;;4.68;100.00;101110.47;5054994;28;20028;-81
2022/01/20 03:51:05;;;;;;;32.28;5.32;;;4.00;99.90;;;4.72;100.00;101120.59;5053765;28;20057;-81
2022/01/20 03:53:38;;;;;;;25.42;4.75;;;4.00;99.90;;;4.73;100.00;101127.75;5055344;28;20041;-79
2022/01/20 03:56:09;;;;;;;28.05;4.75;;;4.00;99.90;;;4.72;100.00;101128.06;5054142;28;20143;-81
2022/01/20 03:58:35;;;;;;;30.30;4.35;;;4.00;99.90;;;4.75;100.00;101122.72;5037210;28;20082;-80
2022/01/20 04:01:04;;;;;;;20.48;3.80;;;4.00;99.90;;;4.71;100.00;101118.13;5053612;28;20119;-79
2022/01/20 04:03:32;;;;;;;23.52;5.10;;;4.00;99.90;;;4.70;100.00;101122.84;5054409;28;20096;-81
2022/01/20 04:05:59;;;;;;;25.67;4.03;;;4.00;99.90;;;4.64;100.00;101123.25;5056585;28;20037;-80
2022/01/20 04:08:35;;;;;;;21.75;4.13;;;4.00;99.90;;;4.57;100.00;101118.13;5037565;28;20032;-81
2022/01/20 04:11:09;;;;;;;26.05;4.05;;;3.90;99.90;;;4.61;100.00;101112.81;5056009;28;20146;-81
2022/01/20 04:13:36;;;;;;;20.13;4.03;;;3.90;99.90;;;4.70;100.00;101122.84;5062069;28;20040;-79
2022/01/20 04:16:30;;;;;;;23.90;5.10;;;3.90;99.90;;;4.70;100.00;101135.88;5074045;28;20036;-80
2022/01/20 04:18:56;;;;;;;15.15;3.00;;;3.90;99.90;;;4.68;100.00;101136.19;5058326;28;20069;-81
2022/01/20 04:21:31;;;;;;;22.33;3.42;;;3.90;99.90;;;4.78;100.00;101135.94;5069961;28;20028;-82
2022/01/20 04:24:02;;;;;;;20.52;3.63;;;4.00;99.90;;;4.73;100.00;101138.84;5057577;28;20115;-81
2022/01/20 04:26:29;;;;;;;20.17;3.72;;;4.00;99.90;;;4.75;100.00;101131.03;5043712;28;20068;-78
2022/01/20 04:28:57;;;;;;;21.88;3.97;;;4.00;99.90;;;4.76;100.00;101140.16;5037367;28;20068;-79
2022/01/20 04:31:32;;;;;;;25.35;4.28;;;4.10;99.90;;;4.77;100.00;101145.41;5036218;28;20032;-79
2022/01/20 04:33:59;;;;;;;21.13;4.15;;;4.00;99.90;;;4.66;100.00;101145.88;5035532;28;20025;-81
2022/01/20 04:36:31;;;;;;;17.23;4.15;;;4.00;99.90;;;4.65;100.00;101147.03;5035354;28;20026;-81
2022/01/20 04:38:59;;;;;;;21.00;3.95;;;3.90;99.90;;;4.64;100.00;101134.31;5036023;28;20394;-80
2022/01/20 04:41:29;;;;;;;23.60;4.30;;;3.90;99.90;;;4.62;100.00;101142.91;5035998;28;20091;-80
2022/01/20 04:43:59;;;;;;;32.60;6.13;;;3.90;99.90;;;4.57;100.00;101140.25;5036007;28;20616;-79
2022/01/20 04:57:17;;;;;;;20.60;4.60;;;4.00;99.90;;;4.65;100.00;101152.56;5057360;28;20087;-80
2022/01/20 04:59:53;;;;;;;20.05;3.60;;;4.00;99.90;;;4.65;100.00;101160.88;5040077;28;20024;-80
2022/01/20 05:02:25;;;;;;;16.50;3.22;;;4.00;99.90;;;4.60;100.00;101156.25;5055089;28;20108;-81
2022/01/20 05:04:57;;;;;;;19.55;3.75;;;4.00;99.90;;;4.67;100.00;101172.44;5054933;28;20025;-81
2022/01/20 05:07:26;;;;;;;18.48;4.45;;;4.00;99.90;;;4.65;100.00;101164.47;5055811;28;20061;-80
2022/01/20 05:09:54;;;;;;;14.50;3.60;;;4.00;99.90;;;4.59;100.00;101162.91;5056978;28;20053;-82
2022/01/20 05:12:26;;;;;;;16.92;3.58;;;4.00;99.90;;;4.48;100.00;101150.41;5054377;28;20029;-81
2022/01/20 05:14:54;;;;;;;15.55;3.80;;;4.00;99.90;;;4.53;100.00;101164.13;5038481;28;20115;-78
2022/01/20 05:17:20;;;;;;;22.85;3.78;;;3.90;99.90;;;4.49;100.00;101165.06;5055303;28;20479;-80
2022/01/20 05:19:46;;;;;;;14.80;3.08;;;3.90;99.90;;;4.56;100.00;101165.47;5053547;28;20028;-79
2022/01/20 05:22:12;;;;;;;15.00;3.20;;;3.90;99.90;;;4.51;100.00;101182.16;5055107;28;20812;-82
2022/01/20 05:24:38;;;;;;;13.63;3.17;;;3.90;99.90;;;4.48;100.00;101186.34;5054350;28;20063;-80
2022/01/20 05:27:04;;;;;;;18.95;4.43;;;3.80;99.90;;;4.49;100.00;101185.25;5039809;28;20065;-81
2022/01/20 05:29:36;;;;;;;13.18;3.67;;;3.80;99.90;;;4.49;100.00;101181.66;5036464;28;20037;-79
2022/01/20 05:32:02;;;;;;;21.98;3.40;;;3.80;99.90;;;4.44;100.00;101195.56;5036589;28;20029;-81
2022/01/20 05:34:31;;;;;;;10.82;3.10;;;3.80;99.90;;;4.48;100.00;101205.72;5056028;28;20079;-82
2022/01/20 05:36:56;;;;;;;17.27;2.55;;;3.80;99.90;;;4.48;100.00;101208.50;5038117;28;20036;-83
2022/01/20 05:39:22;;;;;;;13.52;2.70;;;3.80;99.90;;;4.48;100.00;101202.97;5056831;28;20392;-82
2022/01/20 05:41:51;;;;;;;14.80;3.55;;;3.70;99.90;;;4.47;100.00;101222.59;5055739;28;20044;-80
2022/01/20 05:44:17;;;;;;;11.00;2.47;;;3.70;99.90;;;4.37;100.00;101225.53;5055388;28;20020;-80
2022/01/20 05:46:48;;;;;;;16.00;3.50;;;3.70;99.90;;;4.36;100.00;101226.69;5057816;28;20051;-82
2022/01/20 05:49:26;;;;;;;11.23;2.97;;;3.60;99.90;;;4.25;100.00;101226.84;5058390;28;20036;-81
2022/01/20 05:51:55;;;;;;;9.85;2.50;;;3.60;99.90;;;4.23;100.00;101245.72;5056802;28;20036;-83
2022/01/20 05:54:23;;;;;;;13.07;2.95;;;3.60;99.90;;;4.14;100.00;101243.94;5036061;28;20100;-84
2022/01/20 05:56:52;;;;;;;10.70;2.38;;;3.50;99.90;;;4.05;100.00;101241.00;5055086;28;20029;-85
2022/01/20 05:59:19;;;;;;;6.93;2.33;;;3.40;99.90;;;4.08;100.00;101240.41;5044123;28;20119;-84
2022/01/20 06:01:52;;;;;;;11.50;2.30;;;3.40;99.90;;;4.05;100.00;101229.94;5056785;28;20032;-82
2022/01/20 06:04:21;;;;;;;11.68;2.35;;;3.30;99.90;;;4.06;100.00;101248.19;5052777;28;20048;-82
2022/01/20 06:06:59;;;;;;;13.32;1.90;;;3.30;99.90;;;3.98;100.00;101240.56;5036565;28;20416;-82
2022/01/20 06:09:26;;;;;;;9.75;2.42;;;3.20;99.90;;;3.91;100.00;101242.06;5036117;28;20104;-82
2022/01/20 06:11:52;;;;;;;11.82;2.13;;;3.20;99.90;;;3.94;100.00;101241.47;5036871;28;20033;-82
2022/01/20 06:14:19;;;;;;;13.25;2.38;;;3.20;99.90;;;3.95;100.00;101249.44;5037044;28;20048;-83
2022/01/20 06:16:44;;;;;;;11.57;1.70;;;3.20;99.90;;;3.86;100.00;101253.19;5036755;28;20048;-82
2022/01/20 06:19:13;;;;;;;10.48;2.50;;;3.10;99.90;;;3.84;100.00;101259.03;5035855;28;20484;-84
2022/01/20 06:21:42;;;;;;;12.02;2.63;;;3.10;99.90;;;3.83;100.00;101262.06;5039164;28;20025;-82
2022/01/20 06:24:08;;;;;;;14.85;2.30;;;3.10;99.90;;;3.83;100.00;101268.44;5037488;28;20032;-82
2022/01/20 06:26:34;;;;;;;14.82;2.92;;;3.10;99.90;;;3.84;100.00;101278.38;5053395;28;20197;-82
2022/01/20 06:29:04;;;;;;;10.40;2.38;;;3.10;99.90;;;3.76;100.00;101276.25;5035661;28;20029;-81
2022/01/20 06:31:29;;;;;;;11.88;3.50;;;3.00;99.90;;;3.76;100.00;101284.53;5037133;28;20072;-83
2022/01/20 06:33:55;;;;;;;7.60;2.60;;;3.00;99.90;;;3.75;100.00;101285.69;5040282;28;20030;-80
2022/01/20 06:36:24;;;;;;;16.10;3.13;;;3.00;99.90;;;3.78;100.00;101300.84;5038654;28;20033;-82
2022/01/20 06:38:50;;;;;;;12.68;2.30;;;3.00;99.90;;;3.74;100.00;101306.13;5041256;28;20025;-83
2022/01/20 06:41:19;;;;;;;12.50;2.55;;;3.00;99.90;;;3.81;100.00;101305.78;5056916;28;20067;-84
2022/01/20 06:43:45;;;;;;;13.32;2.95;;;3.00;99.90;;;3.80;100.00;101301.34;5039475;28;20025;-82
2022/01/20 06:46:11;;;;;;;13.35;2.38;;;3.00;99.90;;;3.79;100.00;101308.81;5041317;28;20036;-85
2022/01/20 06:48:37;;;;;;;17.95;2.40;;;3.00;99.90;;;3.74;100.00;101325.47;5047645;28;20049;-83
2022/01/20 06:51:04;;;;;;;11.27;1.90;;;3.00;99.90;;;3.72;100.00;101320.22;5053070;28;20048;-79
2022/01/20 06:53:31;;;;;;;13.45;3.47;;;3.00;99.90;;;3.68;100.00;101319.22;5037871;28;20033;-84
2022/01/20 06:55:57;;;;;;;20.63;2.33;;;3.00;99.90;;;3.55;100.00;101316.34;5037439;28;20033;-82
2022/01/20 06:58:23;;;;;;;17.65;2.97;;;2.80;99.90;;;3.49;100.00;101329.38;5040698;28;20071;-85
2022/01/20 07:00:49;;;;;;;12.88;1.92;;;2.70;99.90;;;3.48;100.00;101335.19;5062949;28;20031;-82
2022/01/20 07:03:17;;;;;;;12.00;2.22;;;2.80;99.90;;;3.46;100.00;101343.78;5060365;28;20059;-82
2022/01/20 07:05:43;;;;;;;16.92;2.88;;;2.70;99.90;;;3.51;100.00;101357.53;5041598;28;20395;-83
2022/01/20 07:08:09;;;;;;;18.00;3.30;;;2.70;99.90;;;3.51;100.00;101360.28;5059799;28;20037;-84
2022/01/20 07:10:41;;;;;;;13.70;2.67;;;2.70;99.90;;;3.50;100.00;101363.38;5058040;28;20056;-82
2022/01/20 07:13:10;;;;;;;26.45;4.20;;;2.80;99.90;;;3.54;100.00;101369.91;5059531;28;20033;-84
2022/01/20 07:15:37;;;;;;;19.60;2.95;;;2.80;99.90;;;3.65;100.00;101382.50;5060480;28;20131;-85
2022/01/20 07:18:06;;;;;;;13.75;2.55;;;2.80;99.90;;;3.62;100.00;101381.16;5061197;28;20128;-84
2022/01/20 07:20:32;;;;;;;21.95;2.90;;;2.80;99.90;;;3.63;100.00;101385.56;5044390;28;20103;-82
2022/01/20 07:22:58;;;;;;;17.30;3.55;;;2.90;99.90;;;3.70;100.00;101394.31;5062159;28;20044;-85
2022/01/20 07:25:26;;;;;;;14.27;2.80;;;2.90;99.90;;;3.68;100.00;101392.97;5040044;28;20036;-83
2022/01/20 07:27:52;;;;;;;15.82;2.38;;;3.00;99.90;;;3.66;100.00;101412.59;5039976;28;20061;-83
2022/01/20 07:30:18;;;;;;;16.52;2.97;;;2.90;99.90;;;3.60;100.00;101408.25;5040308;28;20025;-85
2022/01/20 07:32:44;;;;;;;15.50;2.70;;;2.90;99.90;;;3.64;100.00;101414.00;5056607;28;20031;-84
2022/01/20 07:35:13;;;;;;;12.88;2.13;;;2.90;99.90;;;3.57;100.00;101410.75;5041714;28;20109;-85
2022/01/20 07:37:39;;;;;;;13.82;2.70;;;2.80;99.90;;;3.51;100.00;101412.75;5056653;28;20080;-84
2022/01/20 07:40:06;;;;;;;14.48;2.33;;;2.70;99.90;;;3.53;100.00;101404.19;5039501;28;20034;-83
2022/01/20 07:42:33;;;;;;;19.73;2.60;;;2.80;99.90;;;3.64;100.00;101416.75;5055448;28;20037;-86
2022/01/20 07:44:59;;;;;;;17.88;3.22;;;2.90;99.90;;;3.64;100.00;101423.13;5039262;28;20033;-85
2022/01/20 07:47:28;;;;;;;20.63;2.70;;;2.90;99.90;;;3.63;100.00;101423.41;5055882;28;20103;-84
2022/01/20 07:49:57;;;;;;;13.65;1.83;;;2.90;99.90;;;3.76;100.00;101444.00;5039673;28;20071;-86
2022/01/20 07:52:23;;;;;;;25.40;3.00;;;3.00;99.90;;;3.84;100.00;101457.16;5038861;28;20124;-82
2022/01/20 07:54:49;;;;;;;13.85;2.72;;;3.10;99.90;;;3.76;100.00;101455.06;5054654;28;20064;-82
2022/01/20 07:57:16;;;;;;;20.00;3.72;;;3.10;99.90;;;3.56;100.00;101462.41;5037935;28;20378;-85
2022/01/20 07:59:41;;;;;;;13.95;2.22;;;3.00;99.90;;;3.52;100.00;101452.25;5037366;28;20037;-85
2022/01/20 08:02:08;;;;;;;14.18;1.65;;;2.80;99.90;;;3.33;100.00;101445.81;5036803;28;20036;-86
2022/01/20 08:04:34;;;;;;;13.75;2.47;;;2.70;99.90;;;3.22;100.00;101463.59;5036504;28;20036;-86
2022/01/20 08:07:00;;;;;;;11.93;2.40;;;2.60;99.90;;;3.17;100.00;101464.47;5035998;28;20033;-86
2022/01/20 08:09:26;;;;;;;13.60;1.90;;;2.50;99.90;;;3.12;100.00;101459.81;5036742;28;20033;-85
2022/01/20 08:11:55;;;;;;;8.52;2.05;;;2.40;99.90;;;3.07;100.00;101459.03;5037793;28;20476;-85
2022/01/20 08:14:25;;;;;;;10.80;1.83;;;2.40;99.90;;;3.06;100.00;101452.69;5037611;28;20029;-87
2022/01/20 08:16:57;;;;;;;16.52;2.63;;;2.40;99.90;;;3.03;100.00;101458.78;5055618;28;20159;-85
2022/01/20 08:19:23;;;;;;;14.73;2.67;;;2.30;99.90;;;3.14;100.00;101463.13;5069595;28;20017;-85
2022/01/20 08:21:49;;;;;;;9.88;2.47;;;2.40;99.90;;;3.35;100.00;101460.16;5052743;28;20053;-85
2022/01/20 08:24:18;;;;;;;10.55;1.95;;;2.50;99.90;;;3.53;100.00;101454.72;5045953;28;20411;-85
2022/01/20 08:26:44;;;;;;;12.98;2.28;;;2.70;99.90;;;3.76;100.00;101461.38;5038161;28;20029;-85
2022/01/20 08:29:11;;;;;;;11.70;2.30;;;2.90;99.90;;;3.94;100.00;101468.94;5056831;28;20036;-84
2022/01/20 08:31:37;;;;;;;13.23;2.88;;;3.00;99.90;;;4.12;100.00;101464.56;5038831;28;20036;-85
2022/01/20 08:34:03;;;;;;;10.88;1.92;;;3.20;99.90;;;4.29;98.86;101472.38;5039300;28;20127;-84
2022/01/20 08:36:29;;;;;;;10.27;2.92;;;3.40;99.90;;;4.53;97.28;101470.38;5055159;28;20029;-84
2022/01/20 08:38:59;;;;;;;20.83;3.20;;;3.60;99.90;;;4.72;93.27;101473.97;5056097;28;20036;-85
2022/01/20 08:41:28;;;;;;;12.43;2.15;;;3.80;99.90;;;4.93;93.12;101480.03;5056281;28;20123;-84
2022/01/20 08:43:53;;;;;;;10.70;2.50;;;4.00;99.90;;;5.19;93.67;101470.22;5054971;28;20021;-83
2022/01/20 08:46:21;;;;;;;17.30;2.42;;;4.20;99.90;;;5.30;91.03;101474.44;5038631;28;20120;-84
2022/01/20 08:48:48;;;;;;;15.77;3.08;;;4.40;99.90;;;5.03;91.92;101472.41;5057148;28;20029;-84
2022/01/20 08:51:14;;;;;;;10.85;1.98;;;4.30;99.90;;;4.81;92.63;101477.75;5056752;28;20033;-84
2022/01/20 08:53:41;;;;;;;15.48;2.40;;;4.10;99.90;;;4.70;93.57;101482.59;5058090;28;20086;-83
2022/01/20 08:56:07;;;;;;;16.15;2.30;;;4.00;99.90;;;4.60;93.83;101488.25;5058206;28;20032;-83
2022/01/20 08:58:33;;;;;;;18.70;2.83;;;3.90;99.90;;;4.44;94.75;101481.28;5041217;28;20021;-86
2022/01/20 09:01:10;;;;;;;14.07;2.70;;;3.70;99.90;;;4.41;94.55;101487.41;5057767;28;20082;-83
2022/01/20 09:03:36;;;;;;;18.52;3.33;;;3.70;99.90;;;4.41;93.78;101490.19;5057505;28;20472;-83
2022/01/20 09:06:03;;;;;;;17.98;2.90;;;3.70;99.90;;;4.31;94.12;101501.38;5039684;28;20032;-83
2022/01/20 09:08:29;;;;;;;11.60;2.80;;;3.60;99.90;;;4.25;96.34;101497.84;5039160;28;20515;-84
2022/01/20 09:10:55;;;;;;;17.10;3.40;;;3.50;99.90;;;4.16;94.92;101504.34;5038708;28;20119;-82
2022/01/20 09:16:09;;;;;;;10.43;2.40;;;3.40;99.90;;;4.13;95.50;101527.03;5057636;28;20043;-83
2022/01/20 09:18:35;;;;;;;18.10;2.58;;;3.40;99.90;;;4.09;97.90;101520.44;5055096;28;20111;-83
2022/01/20 09:21:02;;;;;;;15.13;2.60;;;3.40;99.90;;;4.10;98.10;101513.81;5039232;28;20514;-83
2022/01/20 09:23:31;;;;;;;10.68;3.38;;;3.30;99.90;;;4.06;96.60;101521.03;5055975;28;20056;-83
2022/01/20 09:25:56;;;;;;;19.20;2.60;;;3.30;99.90;;;4.05;96.45;101519.38;5053232;28;20091;-85
2022/01/20 09:28:26;;;;;;;16.65;3.20;;;3.30;99.90;;;4.07;98.19;101514.41;5053075;28;20026;-83
2022/01/20 09:30:57;;;;;;;10.50;2.28;;;3.30;99.90;;;4.01;96.43;101508.13;5052943;28;20501;-82
2022/01/20 09:33:28;;;;;;;14.65;3.25;;;3.30;99.90;;;3.85;96.96;101516.84;5035732;28;20025;-84
2022/01/20 09:35:57;;;;;;;13.82;2.28;;;3.20;99.90;;;4.07;99.13;101506.09;5052569;28;20025;-83
2022/01/20 09:38:27;;;;;;;9.52;2.22;;;3.30;99.90;;;4.60;96.27;101509.56;5037619;28;20492;-84
2022/01/20 09:40:55;;;;;;;9.75;2.20;;;3.70;99.90;;;5.09;92.53;101518.28;5035323;28;20029;-84
2022/01/20 09:43:21;;;;;;;16.17;2.92;;;4.10;99.90;;;5.31;91.39;101518.47;5037210;28;20029;-84
2022/01/20 09:45:55;;;;;;;11.02;2.72;;;4.40;99.90;;;5.01;90.91;101526.44;5053981;28;20032;-84
2022/01/20 09:48:26;;;;;;;23.13;3.45;;;4.20;99.90;;;4.70;92.32;101526.03;5035554;28;20025;-82
2022/01/20 09:51:00;;;;;;;10.57;2.30;;;4.00;99.90;;;4.57;93.93;101529.53;5037425;28;20033;-86
2022/01/20 09:53:28;;;;;;;14.68;2.70;;;3.80;99.90;;;4.42;94.02;101543.56;5035839;28;20025;-84
2022/01/20 09:55:56;;;;;;;12.95;2.47;;;3.70;99.90;;;4.39;94.38;101542.22;5034644;28;20101;-83
2022/01/20 09:58:23;;;;;;;20.52;3.67;;;3.60;99.90;;;4.57;93.95;101533.13;5034819;28;20095;-83
2022/01/20 10:00:51;;;;;;;12.18;2.25;;;3.80;99.90;;;4.92;92.92;101534.56;5052745;28;20026;-83
2022/01/20 10:03:26;;;;;;;15.10;2.60;;;4.00;99.90;;;4.90;91.38;101542.38;5035110;28;20108;-86
2022/01/20 10:05:54;;;;;;;14.67;2.33;;;4.10;99.90;;;4.94;92.17;101548.13;5051825;28;20026;-86
2022/01/20 10:08:25;;;;;;;16.08;2.42;;;4.10;99.90;;;4.82;90.68;101548.56;5051568;28;20275;-85
2022/01/20 10:10:54;;;;;;;12.40;3.20;;;4.00;99.90;;;4.77;92.97;101538.41;5052149;28;20045;-82
2022/01/20 10:13:34;;;;;;;17.08;3.22;;;4.00;99.90;;;4.68;92.09;101550.44;5050325;28;20448;-86
2022/01/20 10:16:06;;;;;;;18.05;3.35;;;4.00;99.90;;;4.53;91.93;101547.84;5034215;28;20061;-84
2022/01/20 10:19:02;;;;;;;17.08;2.65;;;3.80;99.90;;;4.45;93.86;101554.88;5035542;28;20029;-86
2022/01/20 10:21:32;;;;;;;16.73;2.58;;;3.70;99.90;;;4.43;92.84;101559.84;5035109;28;20124;-86
2022/01/20 10:24:13;;;;;;;19.95;2.97;;;3.70;99.90;;;4.46;93.30;101561.22;5051158;28;20037;-84
2022/01/20 10:26:42;;;;;;;13.63;3.22;;;3.70;99.90;;;4.59;93.09;101557.75;5054748;28;20091;-83
2022/01/20 10:29:14;;;;;;;13.95;2.45;;;3.80;99.90;;;4.59;89.77;101560.50;5037355;28;20032;-85
2022/01/20 10:31:51;;;;;;;12.93;2.60;;;3.90;99.90;;;4.64;89.68;101565.97;5037182;28;20036;-84
2022/01/20 10:34:35;;;;;;;10.05;2.30;;;3.90;99.90;;;4.64;89.91;101572.34;5054356;28;20029;-83
2022/01/20 10:37:24;;;;;;;14.30;2.38;;;3.90;99.90;;;4.78;89.14;101580.75;5054574;28;20524;-81
2022/01/20 10:39:50;;;;;;;15.73;2.38;;;4.00;99.90;;;4.62;89.92;101584.81;5056098;28;20031;-83
2022/01/20 10:42:22;;;;;;;14.90;2.30;;;4.00;99.90;;;4.74;89.20;101590.75;5036783;28;20025;-83
2022/01/20 10:45:02;;;;;;;9.88;1.98;;;4.10;99.90;;;4.70;88.31;101589.69;5036208;28;20029;-84
2022/01/20 10:47:33;;;;;;;17.30;3.08;;;4.00;99.90;;;4.81;88.96;101596.75;5054648;28;20036;-83
2022/01/20 10:50:36;;;;;;;10.38;2.47;;;4.10;99.90;;;4.65;87.03;101598.06;5053616;28;20036;-86
2022/01/20 10:53:02;;;;;;;13.85;2.10;;;4.00;99.90;;;4.81;87.50;101590.38;4993433;28;20030;-82
2022/01/20 10:55:34;;;;;;;12.95;2.65;;;4.10;99.90;;;4.86;86.51;101585.59;5042508;28;20048;-84
2022/01/20 10:58:23;;;;;;;11.65;2.13;;;4.10;99.90;;;5.21;86.35;101587.03;5054798;28;20036;-83
2022/01/20 11:00:55;;;;;;;12.10;1.95;;;4.40;99.90;;;5.13;84.89;101584.97;5056070;28;20033;-83
2022/01/20 11:03:28;;;;;;;14.45;2.53;;;4.40;99.90;;;5.12;84.94;101581.34;5054850;28;20037;-86
2022/01/20 11:05:56;;;;;;;21.65;3.50;;;4.40;99.90;;;5.09;86.55;101579.19;5037029;28;20477;-85
2022/01/20 11:08:22;;;;;;;17.58;3.88;;;4.30;99.90;;;5.09;87.13;101568.13;5058988;28;20527;-86
2022/01/20 11:10:51;;;;;;;14.60;2.90;;;4.40;99.90;;;4.94;87.48;101570.28;5059537;28;20029;-86
2022/01/20 11:13:20;;;;;;;14.93;3.17;;;4.20;99.90;;;4.99;89.14;101567.44;5053789;28;20029;-87
2022/01/20 11:15:46;;;;;;;17.80;3.92;;;4.20;99.90;;;4.89;89.16;101564.78;5054270;28;20025;-84
2022/01/20 11:18:15;;;;;;;16.17;3.22;;;4.20;99.90;;;4.90;88.82;101577.53;5037654;28;20040;-84
2022/01/20 11:20:52;;;;;;;17.48;4.15;;;4.20;99.90;;;4.78;89.93;101564.94;5040226;28;20029;-85
2022/01/20 11:23:18;;;;;;;13.60;3.20;;;4.10;99.90;;;4.81;89.48;101560.78;5057259;28;20031;-85
2022/01/20 11:25:49;;;;;;;15.77;2.70;;;4.10;99.90;;;4.75;88.42;101568.28;5050646;28;20026;-85